Time;durP1;ratioP1;P1;durP2;ratioP2;P2;SDS_P1;SDS_P2;PMS_P1;PMS_P2;Temp;Humidity;BMP_temperature;BMP_pressure;BME280_temperature;BME280_humidity;BME280_pressure;Samples;Min_cycle;Max_cycle;Signal;HPM_P1;HPM_P2
2023/01/31 00:01:11;;;;;;;10.48;3.90;;;4.80;99.90;;;;;;5079779;28;20032;-42
2023/01/31 00:03:38;;;;;;;7.80;2.55;;;4.80;99.90;;;;;;5081212;28;20042;-43
2023/01/31 00:06:19;;;;;;;19.63;2.97;;;4.80;99.90;;;;;;5080681;28;20056;-43
2023/01/31 00:08:46;;;;;;;15.15;3.00;;;4.70;99.90;;;;;;5078387;28;20435;-43
2023/01/31 00:11:14;;;;;;;14.50;2.63;;;4.70;99.90;;;;;;5080699;28;20491;-44
2023/01/31 00:13:40;;;;;;;12.75;3.22;;;4.70;99.90;;;;;;5079547;28;20063;-43
2023/01/31 00:16:07;;;;;;;12.90;2.38;;;4.70;99.90;;;;;;5081085;28;20031;-42
2023/01/31 00:18:33;;;;;;;15.23;2.85;;;4.70;99.90;;;;;;5080835;28;20032;-43
2023/01/31 00:21:04;;;;;;;12.32;2.60;;;4.60;99.90;;;;;;5080224;28;20388;-41
2023/01/31 00:23:30;;;;;;;12.82;2.08;;;4.60;99.90;;;;;;5080246;28;20028;-42
2023/01/31 00:26:06;;;;;;;12.75;2.20;;;4.60;99.90;;;;;;5080815;28;20031;-43
2023/01/31 00:28:31;;;;;;;9.68;2.22;;;4.60;99.90;;;;;;5080657;28;20020;-43
2023/01/31 00:30:57;;;;;;;8.07;2.38;;;4.60;99.90;;;;;;5084367;28;20911;-43
2023/01/31 00:33:23;;;;;;;9.77;2.05;;;4.50;99.90;;;;;;5084732;28;20550;-43
2023/01/31 00:35:48;;;;;;;11.13;2.35;;;4.50;99.90;;;;;;5083815;28;20039;-43
2023/01/31 00:38:14;;;;;;;12.82;1.90;;;4.50;99.90;;;;;;5084234;28;20073;-42
2023/01/31 00:40:39;;;;;;;9.02;1.70;;;4.50;99.90;;;;;;5084443;28;20125;-42
2023/01/31 00:43:05;;;;;;;11.20;2.17;;;4.40;99.90;;;;;;5083662;28;20027;-42
2023/01/31 00:45:30;;;;;;;7.65;2.10;;;4.40;99.90;;;;;;5084648;28;20020;-43
2023/01/31 00:47:56;;;;;;;9.52;2.40;;;4.40;99.90;;;;;;5084470;28;20028;-42
2023/01/31 00:50:22;;;;;;;13.05;3.45;;;4.30;99.90;;;;;;5084372;28;20035;-43
2023/01/31 00:52:47;;;;;;;7.88;1.95;;;4.30;99.90;;;;;;5084543;28;20127;-43
2023/01/31 00:55:13;;;;;;;8.32;2.83;;;4.30;99.90;;;;;;5084109;28;20020;-42
2023/01/31 00:57:39;;;;;;;11.23;2.75;;;4.20;99.90;;;;;;5083636;28;20104;-43
2023/01/31 01:00:05;;;;;;;8.88;2.67;;;4.20;99.90;;;;;;5083943;28;20464;-43
2023/01/31 01:02:30;;;;;;;9.88;2.75;;;4.20;99.90;;;;;;5083641;28;20008;-42
2023/01/31 01:04:56;;;;;;;16.65;4.32;;;4.20;99.90;;;;;;5084170;28;20081;-42
2023/01/31 01:07:21;;;;;;;15.07;4.97;;;4.20;99.90;;;;;;5084563;28;20032;-42
2023/01/31 01:09:47;;;;;;;14.85;3.45;;;4.20;99.90;;;;;;5083578;28;20035;-42
2023/01/31 01:12:12;;;;;;;10.65;3.17;;;4.20;99.90;;;;;;5083768;28;20024;-43
2023/01/31 01:14:38;;;;;;;10.25;2.85;;;4.20;99.90;;;;;;5083563;28;20067;-42
2023/01/31 01:17:03;;;;;;;8.32;2.92;;;4.20;99.90;;;;;;5083544;28;20131;-43
2023/01/31 01:19:29;;;;;;;10.43;2.50;;;4.20;99.90;;;;;;5083894;28;20142;-43
2023/01/31 01:21:54;;;;;;;9.52;2.72;;;4.20;99.90;;;;;;5083854;28;20383;-43
2023/01/31 01:24:20;;;;;;;8.77;2.13;;;4.20;99.90;;;;;;5083371;28;20562;-43
2023/01/31 01:26:46;;;;;;;8.50;2.20;;;4.20;99.90;;;;;;5084228;28;20067;-42
2023/01/31 01:29:12;;;;;;;11.20;2.92;;;4.20;99.90;;;;;;5083615;28;20028;-43
2023/01/31 01:31:38;;;;;;;9.35;2.40;;;4.20;99.90;;;;;;5082876;28;20110;-43
2023/01/31 01:34:11;;;;;;;9.88;2.72;;;4.20;99.90;;;;;;5083899;28;20868;-43
2023/01/31 01:36:37;;;;;;;9.88;2.47;;;4.10;99.90;;;;;;5079758;28;20043;-42
2023/01/31 01:39:04;;;;;;;10.85;3.13;;;4.10;99.90;;;;;;5082747;28;20043;-43
2023/01/31 01:41:32;;;;;;;6.22;2.33;;;4.10;99.90;;;;;;5082476;28;20012;-43
2023/01/31 01:43:59;;;;;;;6.25;2.40;;;4.10;99.90;;;;;;5083584;28;20035;-43
2023/01/31 01:46:35;;;;;;;9.65;2.90;;;4.00;99.90;;;;;;5082940;28;20031;-42
2023/01/31 01:49:16;;;;;;;10.68;3.10;;;4.00;99.90;;;;;;5083289;28;20564;-42
2023/01/31 01:51:44;;;;;;;10.60;3.40;;;3.90;99.90;;;;;;5083028;28;20106;-43
2023/01/31 01:54:18;;;;;;;8.60;2.95;;;3.90;99.90;;;;;;5083146;28;20085;-41
2023/01/31 01:56:48;;;;;;;10.18;3.10;;;3.90;99.90;;;;;;5082628;28;20055;-42
2023/01/31 01:59:30;;;;;;;11.30;3.03;;;3.80;99.90;;;;;;5082675;28;20040;-43
2023/01/31 02:01:56;;;;;;;12.55;3.10;;;3.70;99.90;;;;;;5082723;28;20823;-43
2023/01/31 02:04:31;;;;;;;10.25;3.28;;;3.70;99.90;;;;;;5082944;28;20031;-43
2023/01/31 02:06:59;;;;;;;13.95;3.58;;;3.70;99.90;;;;;;5081743;28;20825;-42
2023/01/31 02:09:44;;;;;;;8.07;2.60;;;3.60;99.90;;;;;;5083542;28;20376;-43
2023/01/31 02:12:11;;;;;;;11.43;3.10;;;3.60;99.90;;;;;;5082833;28;20428;-43
2023/01/31 02:14:36;;;;;;;14.77;3.60;;;3.60;99.90;;;;;;5081382;28;20107;-44
2023/01/31 02:17:02;;;;;;;9.07;2.85;;;3.60;99.90;;;;;;5081995;28;20034;-43
2023/01/31 02:19:50;;;;;;;6.65;2.47;;;3.60;99.90;;;;;;5081676;28;20520;-42
2023/01/31 02:22:30;;;;;;;9.57;2.85;;;3.70;99.90;;;;;;5080881;28;20024;-42
2023/01/31 02:25:04;;;;;;;9.63;2.60;;;3.70;99.90;;;;;;5062485;28;20029;-42
2023/01/31 02:28:00;;;;;;;14.48;3.10;;;3.70;99.90;;;;;;5076631;28;20024;-43
2023/01/31 02:30:44;;;;;;;6.57;2.13;;;3.70;99.90;;;;;;5062850;28;20031;-42
2023/01/31 02:33:34;;;;;;;7.35;2.25;;;3.80;99.90;;;;;;5081286;28;20035;-42
2023/01/31 02:36:24;;;;;;;7.45;2.50;;;3.80;99.90;;;;;;5081249;28;20235;-42
2023/01/31 02:38:58;;;;;;;6.20;2.30;;;3.90;99.90;;;;;;5080027;28;20067;-42
2023/01/31 02:41:47;;;;;;;6.22;2.33;;;3.90;99.90;;;;;;5081827;28;20368;-42
2023/01/31 02:47:16;;;;;;;8.43;2.22;;;3.90;99.90;;;;;;5081772;28;20039;-43
2023/01/31 02:49:51;;;;;;;9.10;2.30;;;4.00;99.90;;;;;;5082055;28;20049;-43
2023/01/31 02:52:45;;;;;;;6.25;2.05;;;4.00;99.90;;;;;;5082446;28;20024;-42
2023/01/31 02:58:12;;;;;;;9.38;2.25;;;4.10;99.90;;;;;;5081908;28;20050;-42
2023/01/31 03:00:42;;;;;;;7.10;2.22;;;4.00;99.90;;;;;;5082297;28;20062;-42
2023/01/31 03:03:17;;;;;;;7.38;2.22;;;4.00;99.90;;;;;;5080799;28;20023;-42
2023/01/31 03:05:42;;;;;;;7.47;2.20;;;4.00;99.90;;;;;;5081617;28;20020;-42
2023/01/31 03:08:15;;;;;;;8.95;2.55;;;4.00;99.90;;;;;;5081516;28;20093;-42
2023/01/31 03:11:02;;;;;;;7.60;2.00;;;4.10;99.90;;;;;;5080992;28;20482;-42
2023/01/31 03:14:01;;;;;;;7.40;2.20;;;4.00;99.90;;;;;;5081828;28;20036;-42
2023/01/31 03:19:40;;;;;;;9.13;2.03;;;4.00;99.90;;;;;;5081425;28;20510;-42
2023/01/31 03:22:15;;;;;;;7.90;1.70;;;4.10;99.90;;;;;;5061649;28;20074;-42
2023/01/31 03:24:43;;;;;;;10.90;2.10;;;4.10;99.90;;;;;;5078204;28;20020;-42
2023/01/31 03:27:10;;;;;;;7.22;2.20;;;4.20;99.90;;;;;;5081300;28;20491;-42
2023/01/31 03:29:38;;;;;;;9.43;2.33;;;4.20;99.90;;;;;;5080865;28;20069;-42
2023/01/31 03:32:27;;;;;;;9.00;2.08;;;4.20;99.90;;;;;;5080998;28;20020;-42
2023/01/31 03:34:53;;;;;;;9.02;2.33;;;4.30;99.90;;;;;;5081396;28;20065;-43
2023/01/31 03:37:33;;;;;;;6.90;2.03;;;4.30;99.90;;;;;;5081343;28;20643;-43
2023/01/31 03:40:20;;;;;;;7.40;1.92;;;4.30;99.90;;;;;;5080928;28;20048;-42
2023/01/31 03:42:48;;;;;;;6.40;1.90;;;4.30;99.90;;;;;;5060508;28;20539;-42
2023/01/31 03:45:29;;;;;;;8.20;2.45;;;4.30;99.90;;;;;;5076798;28;20039;-42
2023/01/31 03:47:57;;;;;;;10.95;2.63;;;4.40;99.90;;;;;;5081258;28;20085;-42
2023/01/31 03:50:34;;;;;;;11.82;2.85;;;4.40;99.90;;;;;;5081437;28;20089;-42
2023/01/31 03:53:29;;;;;;;6.60;2.75;;;4.40;99.90;;;;;;5060161;28;20472;-43
2023/01/31 03:55:59;;;;;;;8.57;3.10;;;4.50;99.90;;;;;;5079846;28;20479;-41
2023/01/31 03:58:32;;;;;;;8.10;2.88;;;4.50;99.90;;;;;;5080614;28;20043;-42
2023/01/31 04:01:01;;;;;;;10.13;3.35;;;4.50;99.90;;;;;;5080819;28;20096;-42
2023/01/31 04:03:31;;;;;;;9.05;3.20;;;4.50;99.90;;;;;;5082653;28;20024;-42
2023/01/31 04:05:57;;;;;;;9.15;3.33;;;4.60;99.90;;;;;;5086446;28;20107;-42
2023/01/31 04:08:23;;;;;;;8.30;3.15;;;4.60;99.90;;;;;;5087625;28;20105;-42
2023/01/31 04:10:49;;;;;;;8.23;3.45;;;4.60;99.90;;;;;;5087172;28;20081;-43
2023/01/31 04:13:15;;;;;;;10.57;3.60;;;4.60;99.90;;;;;;5086716;28;20042;-42
2023/01/31 04:15:41;;;;;;;10.50;3.38;;;4.60;99.90;;;;;;5086674;28;20390;-43
2023/01/31 04:18:06;;;;;;;11.93;3.60;;;4.60;99.90;;;;;;5087594;28;20545;-42
2023/01/31 04:20:32;;;;;;;12.13;3.78;;;4.60;99.90;;;;;;5086772;28;20480;-43
2023/01/31 04:22:58;;;;;;;10.88;3.97;;;4.60;99.90;;;;;;5087825;28;20028;-42
2023/01/31 04:25:24;;;;;;;8.85;3.83;;;4.60;99.90;;;;;;5087775;28;20394;-42
2023/01/31 04:27:50;;;;;;;12.77;4.13;;;4.60;99.90;;;;;;5086966;28;20807;-42
2023/01/31 04:30:19;;;;;;;11.10;3.92;;;4.60;99.90;;;;;;5087363;28;20016;-42
2023/01/31 04:32:44;;;;;;;10.27;3.58;;;4.60;99.90;;;;;;5087674;28;20016;-42
2023/01/31 04:35:10;;;;;;;12.15;4.20;;;4.60;99.90;;;;;;5086468;28;20401;-42
2023/01/31 04:37:35;;;;;;;9.82;4.38;;;4.60;99.90;;;;;;5087785;28;20020;-42
2023/01/31 04:40:01;;;;;;;12.45;5.13;;;4.60;99.90;;;;;;5087782;28;20035;-42
2023/01/31 04:42:27;;;;;;;8.98;3.88;;;4.60;99.90;;;;;;5086819;28;20036;-42
2023/01/31 04:44:52;;;;;;;15.02;4.15;;;4.60;99.90;;;;;;5087348;28;20020;-42
2023/01/31 04:47:18;;;;;;;12.07;3.95;;;4.60;99.90;;;;;;5087320;28;20039;-42
2023/01/31 04:49:43;;;;;;;10.73;4.30;;;4.60;99.90;;;;;;5087266;28;20189;-42
2023/01/31 04:52:09;;;;;;;11.13;4.75;;;4.60;99.90;;;;;;5086666;28;20016;-42
2023/01/31 04:54:35;;;;;;;11.88;4.75;;;4.60;99.90;;;;;;5086459;28;20091;-42
2023/01/31 04:57:01;;;;;;;10.55;4.50;;;4.60;99.90;;;;;;5086960;28;20493;-42
2023/01/31 04:59:27;;;;;;;11.73;5.00;;;4.70;99.90;;;;;;5087263;28;20036;-42
2023/01/31 05:01:53;;;;;;;13.60;4.75;;;4.70;99.90;;;;;;5086519;28;20043;-42
2023/01/31 05:04:20;;;;;;;8.52;5.05;;;4.70;99.90;;;;;;5087287;28;20059;-43
2023/01/31 05:06:46;;;;;;;14.20;6.05;;;4.70;99.90;;;;;;5086390;28;20502;-42
2023/01/31 05:09:12;;;;;;;14.40;5.20;;;4.70;99.90;;;;;;5086001;28;20036;-42
2023/01/31 05:11:37;;;;;;;10.85;4.88;;;4.70;99.90;;;;;;5087533;28;20028;-42
2023/01/31 05:14:06;;;;;;;13.55;4.95;;;4.80;99.90;;;;;;5087208;28;20020;-43
2023/01/31 05:16:31;;;;;;;16.83;5.13;;;4.80;99.90;;;;;;5082950;28;20024;-42
2023/01/31 05:18:57;;;;;;;11.80;5.28;;;4.80;99.90;;;;;;5083635;28;20047;-42
2023/01/31 05:21:22;;;;;;;16.50;5.40;;;4.80;99.90;;;;;;5083523;28;20031;-42
2023/01/31 05:23:48;;;;;;;10.20;4.63;;;4.80;99.90;;;;;;5083194;28;20035;-42
2023/01/31 05:26:13;;;;;;;11.93;5.13;;;4.80;99.90;;;;;;5084249;28;20066;-43
2023/01/31 05:28:40;;;;;;;12.88;5.03;;;4.80;99.90;;;;;;5083061;28;20035;-43
2023/01/31 05:31:07;;;;;;;17.55;6.03;;;4.80;99.90;;;;;;5062869;28;20040;-43
2023/01/31 05:33:33;;;;;;;18.08;7.38;;;4.80;99.90;;;;;;5077829;28;20115;-43
2023/01/31 05:35:59;;;;;;;13.20;5.78;;;4.80;99.90;;;;;;5082744;28;20056;-43
2023/01/31 05:38:25;;;;;;;12.82;5.63;;;4.90;99.90;;;;;;5083250;28;20052;-43
2023/01/31 05:40:50;;;;;;;11.40;5.18;;;4.80;99.90;;;;;;5083725;28;20081;-42
2023/01/31 05:43:16;;;;;;;13.25;6.00;;;4.80;99.90;;;;;;5083724;28;20023;-42
2023/01/31 05:45:42;;;;;;;14.38;5.60;;;4.80;99.90;;;;;;5082700;28;20515;-43
2023/01/31 05:48:07;;;;;;;11.73;6.15;;;4.90;99.90;;;;;;5083530;28;20016;-43
2023/01/31 05:50:33;;;;;;;14.10;5.60;;;4.90;99.90;;;;;;5083476;28;20024;-43
2023/01/31 05:52:59;;;;;;;11.23;5.53;;;4.90;99.90;;;;;;5082800;28;20184;-43
2023/01/31 05:55:26;;;;;;;14.18;5.20;;;4.90;99.90;;;;;;5083578;28;20022;-42
2023/01/31 05:57:53;;;;;;;10.85;5.13;;;4.90;99.90;;;;;;5082131;28;20797;-43
2023/01/31 06:00:19;;;;;;;11.15;5.18;;;4.90;99.90;;;;;;5082998;28;20054;-42
2023/01/31 06:02:45;;;;;;;12.02;5.47;;;4.90;99.90;;;;;;5082925;28;20031;-42
2023/01/31 06:05:11;;;;;;;12.15;5.78;;;5.00;99.90;;;;;;5082058;28;20055;-43
2023/01/31 06:07:37;;;;;;;15.70;7.47;;;5.00;99.90;;;;;;5083120;28;20245;-42
2023/01/31 06:10:05;;;;;;;15.80;5.90;;;5.10;99.90;;;;;;5082435;28;20046;-43
2023/01/31 06:12:30;;;;;;;17.35;7.72;;;5.10;99.90;;;;;;5062260;28;20843;-43
2023/01/31 06:14:56;;;;;;;14.23;5.63;;;5.10;99.90;;;;;;5076845;28;20032;-43
2023/01/31 06:17:25;;;;;;;11.82;5.78;;;5.20;99.90;;;;;;5083268;28;20047;-44
2023/01/31 06:19:51;;;;;;;12.48;5.97;;;5.20;99.90;;;;;;5082223;28;20491;-44
2023/01/31 06:22:18;;;;;;;16.98;6.57;;;5.20;99.90;;;;;;5083073;28;20063;-42
2023/01/31 06:24:43;;;;;;;14.50;6.15;;;5.30;99.90;;;;;;5082264;28;20028;-42
2023/01/31 06:27:09;;;;;;;15.73;5.55;;;5.30;99.90;;;;;;5081043;28;20101;-43
2023/01/31 06:29:34;;;;;;;17.58;6.18;;;5.30;99.90;;;;;;5082195;28;20019;-43
2023/01/31 06:32:00;;;;;;;15.98;6.32;;;5.20;99.90;;;;;;5082605;28;20109;-42
2023/01/31 06:34:25;;;;;;;15.77;6.28;;;5.30;99.90;;;;;;5081468;28;20028;-42
2023/01/31 06:36:51;;;;;;;17.55;6.88;;;5.30;99.90;;;;;;5082253;28;20056;-42
2023/01/31 06:39:17;;;;;;;11.43;5.85;;;5.20;99.90;;;;;;5082858;28;20036;-42
2023/01/31 06:41:42;;;;;;;12.18;5.72;;;5.20;99.90;;;;;;5082007;28;20020;-43
2023/01/31 06:44:08;;;;;;;12.55;5.22;;;5.30;99.90;;;;;;5082302;28;20648;-43
2023/01/31 06:46:34;;;;;;;13.70;5.78;;;5.30;99.90;;;;;;5081285;28;20043;-43
2023/01/31 06:48:59;;;;;;;15.82;6.03;;;5.30;99.90;;;;;;5079573;28;20032;-43
2023/01/31 06:51:25;;;;;;;18.98;7.22;;;5.30;99.90;;;;;;5081568;28;20082;-42
2023/01/31 06:53:51;;;;;;;16.15;7.00;;;5.40;99.90;;;;;;5081098;28;20103;-42
2023/01/31 06:56:17;;;;;;;14.70;6.30;;;5.40;99.90;;;;;;5080308;28;20099;-43
2023/01/31 06:58:43;;;;;;;15.52;5.97;;;5.40;99.90;;;;;;5080645;28;20046;-43
2023/01/31 07:01:11;;;;;;;16.88;7.10;;;5.40;99.90;;;;;;5080142;28;20020;-41
2023/01/31 07:03:37;;;;;;;13.60;6.68;;;5.40;99.90;;;;;;5081136;28;20042;-42
2023/01/31 07:06:03;;;;;;;15.27;6.20;;;5.40;99.90;;;;;;5080618;28;20020;-43
2023/01/31 07:08:30;;;;;;;12.15;5.82;;;5.40;99.90;;;;;;5079990;28;20753;-43
2023/01/31 07:10:56;;;;;;;13.13;5.75;;;5.50;99.90;;;;;;5080607;28;20470;-42
2023/01/31 07:13:22;;;;;;;11.73;5.68;;;5.50;99.90;;;;;;5081588;28;20111;-43
2023/01/31 07:15:47;;;;;;;13.80;6.07;;;5.50;99.90;;;;;;5079907;28;20505;-43
2023/01/31 07:18:13;;;;;;;14.40;5.90;;;5.50;99.90;;;;;;5080646;28;20024;-43
2023/01/31 07:20:40;;;;;;;12.25;6.10;;;5.50;99.90;;;;;;5080184;28;20024;-43
2023/01/31 07:23:05;;;;;;;15.25;7.00;;;5.50;99.90;;;;;;5080030;28;20115;-44
2023/01/31 07:25:32;;;;;;;19.17;6.82;;;5.50;99.90;;;;;;5080370;28;20028;-43
2023/01/31 07:27:59;;;;;;;15.75;6.80;;;5.50;99.90;;;;;;5080546;28;20055;-42
2023/01/31 07:30:25;;;;;;;12.13;6.00;;;5.50;99.90;;;;;;5080367;28;20056;-42
2023/01/31 07:32:51;;;;;;;16.65;6.68;;;5.50;99.90;;;;;;5079732;28;20578;-43
2023/01/31 07:35:17;;;;;;;16.50;6.32;;;5.50;99.90;;;;;;5081191;28;20063;-42
2023/01/31 07:37:43;;;;;;;20.63;6.30;;;5.60;99.90;;;;;;5080188;28;20368;-43
2023/01/31 07:40:14;;;;;;;12.68;5.25;;;5.60;99.90;;;;;;5079662;28;20380;-43
2023/01/31 07:42:40;;;;;;;14.07;6.05;;;5.60;99.90;;;;;;5080180;28;20105;-42
2023/01/31 07:45:08;;;;;;;14.55;6.60;;;5.60;99.90;;;;;;5080539;28;20034;-42
2023/01/31 07:47:34;;;;;;;14.80;5.72;;;5.60;99.90;;;;;;5080339;28;20024;-42
2023/01/31 07:49:59;;;;;;;12.85;6.35;;;5.60;99.90;;;;;;5081573;28;20490;-43
2023/01/31 07:52:25;;;;;;;13.52;6.30;;;5.60;99.90;;;;;;5080778;28;20024;-42
2023/01/31 07:54:50;;;;;;;12.20;5.40;;;5.60;99.90;;;;;;5081101;28;20028;-42
2023/01/31 07:57:16;;;;;;;12.13;5.60;;;5.60;99.90;;;;;;5080648;28;20036;-43
2023/01/31 07:59:43;;;;;;;18.50;6.05;;;5.70;99.90;;;;;;5080050;28;20035;-42
2023/01/31 08:04:58;;;;;;;13.93;5.50;;;5.70;99.90;;;;;;5070299;28;20121;-43
2023/01/31 08:07:25;;;;;;;10.68;5.03;;;5.70;99.90;;;;;;5081722;28;20028;-42
2023/01/31 08:09:51;;;;;;;15.18;5.53;;;5.70;99.90;;;;;;5081542;28;20838;-42
2023/01/31 08:12:16;;;;;;;16.02;5.93;;;5.70;99.90;;;;;;5080884;28;20024;-42
2023/01/31 08:14:42;;;;;;;13.40;5.85;;;5.70;99.90;;;;;;5081360;28;20137;-42
2023/01/31 08:17:08;;;;;;;9.93;5.30;;;5.70;99.90;;;;;;5081406;28;20065;-44
2023/01/31 08:19:34;;;;;;;11.88;5.32;;;5.70;99.90;;;;;;5079974;28;20124;-42
2023/01/31 08:22:01;;;;;;;14.07;5.13;;;5.80;99.90;;;;;;5080862;28;20043;-43
2023/01/31 08:24:26;;;;;;;10.48;5.20;;;5.70;99.90;;;;;;5081363;28;20028;-43
2023/01/31 08:26:52;;;;;;;13.45;5.57;;;5.70;99.90;;;;;;5080027;28;20035;-43
2023/01/31 08:29:17;;;;;;;14.20;5.38;;;5.70;99.90;;;;;;5081217;28;20029;-43
2023/01/31 08:31:43;;;;;;;11.65;5.63;;;5.70;99.90;;;;;;5080790;28;20460;-43
2023/01/31 08:34:09;;;;;;;10.23;5.65;;;5.70;99.90;;;;;;5079946;28;20073;-42
2023/01/31 08:36:35;;;;;;;11.55;5.00;;;5.80;99.90;;;;;;5080693;28;20217;-42
2023/01/31 08:39:01;;;;;;;11.35;4.72;;;5.80;99.90;;;;;;5079945;28;20040;-42
2023/01/31 08:41:28;;;;;;;8.77;4.78;;;5.80;99.90;;;;;;5080148;28;20059;-43
2023/01/31 08:43:55;;;;;;;15.27;5.47;;;5.80;99.90;;;;;;5079813;28;20066;-43
2023/01/31 08:46:21;;;;;;;13.90;5.32;;;5.90;99.90;;;;;;5080802;28;20026;-42
2023/01/31 08:48:47;;;;;;;10.23;4.85;;;5.90;99.90;;;;;;5079884;28;20395;-43
2023/01/31 08:51:13;;;;;;;12.73;5.30;;;5.90;99.90;;;;;;5083480;28;20024;-42
2023/01/31 08:53:42;;;;;;;14.05;5.40;;;6.00;99.90;;;;;;5083650;28;20028;-42
2023/01/31 08:56:08;;;;;;;11.43;5.00;;;6.00;99.90;;;;;;5083749;28;20078;-42
2023/01/31 08:58:35;;;;;;;11.35;5.13;;;6.00;99.90;;;;;;5084441;28;20721;-43
2023/01/31 09:01:07;;;;;;;9.18;4.88;;;6.10;99.90;;;;;;5082981;28;20111;-43
2023/01/31 09:03:33;;;;;;;13.77;4.47;;;6.10;99.90;;;;;;5084224;28;20032;-43
2023/01/31 09:06:00;;;;;;;13.23;5.10;;;6.10;99.90;;;;;;5084218;28;20027;-43
2023/01/31 09:08:25;;;;;;;12.90;5.38;;;6.10;99.90;;;;;;5083774;28;20020;-43
2023/01/31 09:10:55;;;;;;;13.13;6.25;;;6.10;99.90;;;;;;5083944;28;20028;-41
2023/01/31 09:13:21;;;;;;;12.98;5.18;;;6.10;99.90;;;;;;5084075;28;20123;-42
2023/01/31 09:15:56;;;;;;;13.27;5.38;;;6.10;99.90;;;;;;5082794;28;20110;-42
2023/01/31 09:18:21;;;;;;;12.60;5.82;;;6.20;99.90;;;;;;5084168;28;20032;-42
2023/01/31 09:20:47;;;;;;;14.00;5.38;;;6.20;99.90;;;;;;5083641;28;20043;-43
2023/01/31 09:23:12;;;;;;;12.93;5.68;;;6.30;99.90;;;;;;5083364;28;20028;-42
2023/01/31 09:25:41;;;;;;;12.73;5.22;;;6.20;99.90;;;;;;5083614;28;20063;-41
2023/01/31 09:28:06;;;;;;;14.63;5.35;;;6.30;99.90;;;;;;5083467;28;20042;-42
2023/01/31 09:30:32;;;;;;;10.57;4.72;;;6.20;99.90;;;;;;5082396;28;20016;-42
2023/01/31 09:33:00;;;;;;;15.90;5.35;;;6.20;99.90;;;;;;5082927;28;20927;-42
2023/01/31 09:35:25;;;;;;;10.13;4.68;;;6.30;99.90;;;;;;5083455;28;20044;-42
2023/01/31 09:37:51;;;;;;;10.35;4.80;;;6.30;99.90;;;;;;5082408;28;20076;-42
2023/01/31 09:40:23;;;;;;;13.52;4.85;;;6.30;99.90;;;;;;5083752;28;20032;-42
2023/01/31 09:42:51;;;;;;;12.77;5.68;;;6.30;99.90;;;;;;5077816;28;20032;-42
2023/01/31 09:45:31;;;;;;;10.05;5.00;;;6.30;99.90;;;;;;5082884;28;20102;-43
2023/01/31 09:47:59;;;;;;;9.70;4.80;;;6.40;99.90;;;;;;5079599;28;20035;-43
2023/01/31 09:50:55;;;;;;;10.85;5.15;;;6.40;99.90;;;;;;5083320;28;20028;-43
2023/01/31 09:53:23;;;;;;;11.18;5.00;;;6.40;99.90;;;;;;5065672;28;20475;-42
2023/01/31 09:56:28;;;;;;;13.10;4.55;;;6.40;99.90;;;;;;5083367;28;20024;-43
2023/01/31 09:58:59;;;;;;;16.10;4.80;;;6.40;99.90;;;;;;5077831;28;20036;-43
2023/01/31 10:01:38;;;;;;;14.02;4.43;;;6.40;99.90;;;;;;5082621;28;20035;-43
2023/01/31 10:04:48;;;;;;;11.45;4.50;;;6.50;99.90;;;;;;5082525;28;20028;-43
2023/01/31 10:07:29;;;;;;;11.40;4.47;;;6.50;99.90;;;;;;5083303;28;20056;-42
2023/01/31 10:09:59;;;;;;;9.50;4.20;;;6.50;99.90;;;;;;5083031;28;20479;-43
2023/01/31 10:12:29;;;;;;;13.68;5.05;;;6.50;99.90;;;;;;5082727;28;20089;-42
2023/01/31 10:15:00;;;;;;;10.57;3.95;;;6.60;99.90;;;;;;5083320;28;20024;-42
2023/01/31 10:17:37;;;;;;;10.50;3.92;;;6.60;99.90;;;;;;5083704;28;20107;-44
2023/01/31 10:20:29;;;;;;;9.15;3.63;;;6.60;99.90;;;;;;5083024;28;20035;-42
2023/01/31 10:23:04;;;;;;;15.70;4.20;;;6.70;99.90;;;;;;5040003;28;20039;-43
2023/01/31 10:25:42;;;;;;;8.98;3.53;;;6.80;99.90;;;;;;5082034;28;20455;-43
2023/01/31 10:28:14;;;;;;;8.57;3.50;;;6.80;99.90;;;;;;5083397;28;20024;-42
2023/01/31 10:30:47;;;;;;;11.57;3.95;;;6.90;99.90;;;;;;5082748;28;20020;-42
2023/01/31 10:33:38;;;;;;;8.93;3.22;;;7.00;99.90;;;;;;5081546;28;20043;-42
2023/01/31 10:36:12;;;;;;;8.85;3.80;;;7.00;99.90;;;;;;5082259;28;20044;-42
2023/01/31 10:38:50;;;;;;;13.25;4.28;;;7.10;99.90;;;;;;5081690;28;20716;-43
2023/01/31 10:41:39;;;;;;;12.43;4.95;;;7.10;99.90;;;;;;5081625;28;20035;-43
2023/01/31 10:44:20;;;;;;;12.35;4.32;;;7.10;99.90;;;;;;5039347;28;20488;-42
2023/01/31 10:46:47;;;;;;;15.90;4.72;;;7.10;99.90;;;;;;5060616;28;20694;-42
2023/01/31 10:49:12;;;;;;;13.20;4.53;;;7.10;99.90;;;;;;5077100;28;20039;-42
2023/01/31 10:52:05;;;;;;;12.90;5.25;;;7.20;99.90;;;;;;5081607;28;20060;-43
2023/01/31 10:54:47;;;;;;;13.50;4.93;;;7.20;99.90;;;;;;5081041;28;20016;-43
2023/01/31 10:57:14;;;;;;;13.45;4.95;;;7.20;99.90;;;;;;5063376;28;20063;-43
2023/01/31 10:59:45;;;;;;;11.30;4.75;;;7.30;99.90;;;;;;5081379;28;20028;-44
2023/01/31 11:02:19;;;;;;;12.60;5.03;;;7.30;99.90;;;;;;5060688;28;20161;-42
2023/01/31 11:04:44;;;;;;;14.75;5.20;;;7.30;99.90;;;;;;5077079;28;20059;-42
2023/01/31 11:07:11;;;;;;;12.20;5.15;;;7.40;99.90;;;;;;5081601;28;20107;-44
2023/01/31 11:09:39;;;;;;;16.65;5.32;;;7.40;99.90;;;;;;5080923;28;20020;-43
2023/01/31 11:12:07;;;;;;;12.65;5.45;;;7.40;99.90;;;;;;5080964;28;20027;-44
2023/01/31 11:14:33;;;;;;;15.05;6.70;;;7.40;99.90;;;;;;5080671;28;20424;-43
2023/01/31 11:17:21;;;;;;;18.17;6.03;;;7.50;99.90;;;;;;5081302;28;20058;-43
2023/01/31 11:19:53;;;;;;;15.15;5.43;;;7.50;99.90;;;;;;5080859;28;20506;-42
2023/01/31 11:22:27;;;;;;;12.90;5.33;;;7.50;99.90;;;;;;5081173;28;20031;-43
2023/01/31 11:24:55;;;;;;;14.65;5.93;;;7.50;99.90;;;;;;5081462;28;20032;-42
2023/01/31 11:27:26;;;;;;;13.15;5.53;;;7.50;99.90;;;;;;5081529;28;20100;-43
2023/01/31 11:29:54;;;;;;;10.70;5.38;;;7.50;99.90;;;;;;5080393;28;20069;-43
2023/01/31 11:32:29;;;;;;;16.13;6.43;;;7.60;99.90;;;;;;5081551;28;20071;-43
2023/01/31 11:35:13;;;;;;;13.48;5.82;;;7.60;99.90;;;;;;5080375;28;20075;-43
2023/01/31 11:37:52;;;;;;;13.43;6.25;;;7.50;99.90;;;;;;5080589;28;20101;-44
2023/01/31 11:40:21;;;;;;;14.20;6.03;;;7.60;99.90;;;;;;5080743;28;20042;-42
2023/01/31 11:42:54;;;;;;;15.07;5.82;;;7.60;99.90;;;;;;5080713;28;20035;-43
2023/01/31 11:45:26;;;;;;;15.75;6.35;;;7.60;99.90;;;;;;5081744;28;20024;-43
2023/01/31 11:47:53;;;;;;;12.93;5.30;;;7.60;99.90;;;;;;5080709;28;20023;-44
2023/01/31 11:50:35;;;;;;;15.48;5.53;;;7.70;99.90;;;;;;5081315;28;20102;-43
2023/01/31 11:53:23;;;;;;;13.65;5.60;;;7.70;99.90;;;;;;5080793;28;20127;-43
2023/01/31 11:55:51;;;;;;;20.13;5.95;;;7.70;99.90;;;;;;5080857;28;20028;-43
2023/01/31 11:58:31;;;;;;;14.20;5.10;;;7.70;99.90;;;;;;5080809;28;20043;-44
2023/01/31 12:01:05;;;;;;;14.07;5.72;;;7.70;99.90;;;;;;5079711;28;20088;-43
2023/01/31 12:03:32;;;;;;;15.23;5.22;;;7.70;99.90;;;;;;5080301;28;20024;-43
2023/01/31 12:06:08;;;;;;;15.65;5.63;;;7.70;99.90;;;;;;5079777;28;20024;-42
2023/01/31 12:08:36;;;;;;;16.77;5.93;;;7.70;99.90;;;;;;5081081;28;20023;-46
2023/01/31 12:11:18;;;;;;;19.17;5.38;;;7.70;99.90;;;;;;5079737;28;20115;-43
2023/01/31 12:13:47;;;;;;;16.42;4.50;;;7.60;99.90;;;;;;5080717;28;20035;-43
2023/01/31 12:16:15;;;;;;;9.13;4.50;;;7.60;99.90;;;;;;5080549;28;20032;-43
2023/01/31 12:19:13;;;;;;;10.85;4.28;;;7.60;99.90;;;;;;5081038;28;20040;-44
2023/01/31 12:22:01;;;;;;;14.98;4.43;;;7.60;99.90;;;;;;5034723;28;20028;-42
2023/01/31 12:24:51;;;;;;;12.27;4.80;;;7.60;99.90;;;;;;5080741;28;20038;-42
2023/01/31 12:27:46;;;;;;;12.52;4.03;;;7.60;99.90;;;;;;5085144;28;20050;-43
2023/01/31 12:30:20;;;;;;;12.93;4.55;;;7.60;99.90;;;;;;5085797;28;20376;-42
2023/01/31 12:32:45;;;;;;;11.82;4.05;;;7.60;99.90;;;;;;5084676;28;20103;-42
2023/01/31 12:35:17;;;;;;;11.65;4.13;;;7.60;99.90;;;;;;5084798;28;20637;-42
2023/01/31 12:38:21;;;;;;;9.32;3.85;;;7.50;99.90;;;;;;5085131;28;20032;-42
2023/01/31 12:41:01;;;;;;;11.07;3.95;;;7.50;99.90;;;;;;5020917;28;20055;-42
2023/01/31 12:43:59;;;;;;;11.13;4.10;;;7.60;99.90;;;;;;5078383;28;20568;-42
2023/01/31 12:46:31;;;;;;;12.65;3.72;;;7.60;99.90;;;;;;5084423;28;20064;-43
2023/01/31 12:49:22;;;;;;;15.38;4.38;;;7.60;99.90;;;;;;5084058;28;20031;-43
2023/01/31 12:52:03;;;;;;;12.88;3.72;;;7.60;99.90;;;;;;5084295;28;20156;-43
2023/01/31 12:54:31;;;;;;;9.82;4.18;;;7.60;99.90;;;;;;5083197;28;20138;-41
2023/01/31 12:57:05;;;;;;;10.70;3.65;;;7.60;99.90;;;;;;5083543;28;20032;-42
2023/01/31 12:59:54;;;;;;;8.90;3.80;;;7.60;99.90;;;;;;5084006;28;20043;-43
2023/01/31 13:02:51;;;;;;;7.10;3.00;;;7.60;99.90;;;;;;5083748;28;20020;-42
2023/01/31 13:05:47;;;;;;;6.43;3.08;;;7.70;99.90;;;;;;5055968;28;20474;-42
2023/01/31 13:08:31;;;;;;;9.50;3.75;;;7.70;99.90;;;;;;5083718;28;20788;-43
2023/01/31 13:11:05;;;;;;;7.15;3.25;;;7.70;99.90;;;;;;5084256;28;20028;-43
2023/01/31 13:14:09;;;;;;;9.57;4.07;;;7.70;99.90;;;;;;5084146;28;20043;-42
2023/01/31 13:16:40;;;;;;;7.45;3.15;;;7.70;99.90;;;;;;5079533;28;20032;-42
2023/01/31 13:19:22;;;;;;;8.05;3.15;;;7.70;99.90;;;;;;5083436;28;20068;-42
2023/01/31 13:21:52;;;;;;;8.00;3.05;;;7.80;99.90;;;;;;5082708;28;20022;-43